createdAt,value
2018-09-26T00:00:50.771Z,8.14
2018-09-26T00:01:50.749Z,8.11
2018-09-26T00:02:50.995Z,8.04
2018-09-26T00:03:50.454Z,8.03
2018-09-26T00:04:50.695Z,8.03
2018-09-26T00:05:50.939Z,8.11
2018-09-26T00:06:50.928Z,8.04
2018-09-26T00:07:50.910Z,8.1
2018-09-26T00:08:50.896Z,8.03
2018-09-26T00:09:50.608Z,7.99
2018-09-26T00:10:50.857Z,8.02
2018-09-26T00:11:50.568Z,7.96
2018-09-26T00:12:50.828Z,7.99
2018-09-26T00:13:50.545Z,7.99
2018-09-26T00:14:50.525Z,8
2018-09-26T00:15:50.502Z,7.99
2018-09-26T00:16:50.485Z,8.02
2018-09-26T00:17:50.743Z,8.02
2018-09-26T00:18:50.188Z,8.03
2018-09-26T00:19:50.692Z,7.87
2018-09-26T00:20:50.682Z,7.92
2018-09-26T00:21:50.665Z,7.9
2018-09-26T00:22:50.649Z,7.96
2018-09-26T00:23:50.104Z,7.92
2018-09-26T00:24:50.345Z,7.9
2018-09-26T00:25:50.330Z,7.89
2018-09-26T00:26:50.047Z,7.85
2018-09-26T00:27:50.292Z,7.85
2018-09-26T00:28:50.285Z,7.82
2018-09-26T00:29:50.520Z,7.89
2018-09-26T00:30:50.235Z,7.81
2018-09-26T00:31:50.223Z,7.87
2018-09-26T00:32:50.475Z,7.87
2018-09-26T00:33:50.187Z,7.85
2018-09-26T00:34:50.169Z,7.89
2018-09-26T00:35:50.346Z,7.85
2018-09-26T00:36:49.863Z,7.92
2018-09-26T00:37:49.848Z,7.89
2018-09-26T00:38:50.106Z,7.85
2018-09-26T00:39:50.077Z,7.78
2018-09-26T00:40:50.325Z,7.85
2018-09-26T00:41:50.313Z,7.87
2018-09-26T00:42:49.758Z,7.81
2018-09-26T00:43:50.057Z,7.82
2018-09-26T00:44:49.990Z,7.82
2018-09-26T00:45:50.233Z,7.84
2018-09-26T00:46:50.216Z,7.87
2018-09-26T00:47:49.940Z,7.81
2018-09-26T00:48:49.927Z,7.82
2018-09-26T00:49:49.897Z,7.84
2018-09-26T00:50:50.145Z,7.79
2018-09-26T00:51:49.859Z,7.85
2018-09-26T00:52:50.114Z,7.9
2018-09-26T00:53:49.578Z,7.92
2018-09-26T00:54:50.076Z,7.89
2018-09-26T00:55:50.008Z,7.9
2018-09-26T00:56:49.772Z,7.92
2018-09-26T00:57:49.497Z,7.93
2018-09-26T00:58:50.001Z,7.87
2018-09-26T00:59:49.991Z,7.9
2018-09-26T01:00:49.983Z,7.97
2018-09-26T01:01:49.951Z,8
2018-09-26T01:02:49.935Z,7.99
2018-09-26T01:03:49.652Z,8
2018-09-26T01:04:49.635Z,7.99
2018-09-26T01:05:49.614Z,7.99
2018-09-26T01:06:49.334Z,8.04
2018-09-26T01:07:49.580Z,8.08
2018-09-26T01:08:49.568Z,8.08
2018-09-26T01:09:49.280Z,8.1
2018-09-26T01:10:49.792Z,8.11
2018-09-26T01:11:49.777Z,8.11
2018-09-26T01:12:49.498Z,8.08
2018-09-26T01:13:49.742Z,8.12
2018-09-26T01:14:49.455Z,8.21
2018-09-26T01:15:49.709Z,8.15
2018-09-26T01:16:49.684Z,8.11
2018-09-26T01:17:49.667Z,8.18
2018-09-26T01:18:49.386Z,8.21
2018-09-26T01:19:49.364Z,8.17
2018-09-26T01:20:49.347Z,8.14
2018-09-26T01:21:49.592Z,8.18
2018-09-26T01:22:49.320Z,8.2
2018-09-26T01:23:49.561Z,8.15
2018-09-26T01:24:49.278Z,8.25
2018-09-26T01:25:49.271Z,8.2
2018-09-26T01:26:49.240Z,8.14
2018-09-26T01:27:49.219Z,8.17
2018-09-26T01:28:49.203Z,8.14
2018-09-26T01:29:49.193Z,8.14
2018-09-26T01:30:49.175Z,8.17
2018-09-26T01:31:48.891Z,8.2
2018-09-26T01:32:48.872Z,8.15
2018-09-26T01:33:49.123Z,8.12
2018-09-26T01:34:49.097Z,8.21
2018-09-26T01:35:49.084Z,8.11
2018-09-26T01:36:49.064Z,8.14
2018-09-26T01:37:49.307Z,8.18
2018-09-26T01:38:49.029Z,8.18
2018-09-26T01:39:49.280Z,8.17
2018-09-26T01:40:49.256Z,8.14
2018-09-26T01:41:48.981Z,8.18
2018-09-26T01:42:49.226Z,8.15
2018-09-26T01:43:48.937Z,8.11
2018-09-26T01:44:49.184Z,8.14
2018-09-26T01:45:48.908Z,8.1
2018-09-26T01:46:49.164Z,8.04
2018-09-26T01:47:48.866Z,8.04
2018-09-26T01:48:48.587Z,8.04
2018-09-26T01:49:49.097Z,8.07
2018-09-26T01:50:49.079Z,8.04
2018-09-26T01:51:49.069Z,8.03
2018-09-26T01:52:49.053Z,8
2018-09-26T01:53:48.818Z,8.02
2018-09-26T01:54:49.009Z,8.02
2018-09-26T01:55:48.736Z,8.03
2018-09-26T01:56:48.971Z,8
2018-09-26T01:57:48.964Z,7.99
2018-09-26T01:58:48.673Z,7.94
2018-09-26T01:59:48.396Z,8.03
2018-09-26T02:00:48.633Z,7.94
2018-09-26T02:01:48.363Z,7.93
2018-09-26T02:02:48.866Z,7.93
2018-09-26T02:03:48.588Z,7.9
2018-09-26T02:04:48.837Z,7.92
2018-09-26T02:05:48.284Z,7.9
2018-09-26T02:06:48.807Z,7.92
2018-09-26T02:07:48.266Z,7.9
2018-09-26T02:08:48.239Z,7.92
2018-09-26T02:09:48.212Z,7.93
2018-09-26T02:10:48.725Z,7.81
2018-09-26T02:11:48.707Z,7.85
2018-09-26T02:12:48.432Z,7.9
2018-09-26T02:13:48.672Z,7.96
2018-09-26T02:14:48.653Z,7.93
2018-09-26T02:15:48.105Z,7.89
2018-09-26T02:16:48.355Z,7.96
2018-09-26T02:17:48.332Z,7.9
2018-09-26T02:18:48.315Z,8
2018-09-26T02:19:48.300Z,7.97
2018-09-26T02:20:48.279Z,8
2018-09-26T02:21:48.276Z,8
2018-09-26T02:22:48.511Z,8.03
2018-09-26T02:23:48.068Z,8.03
2018-09-26T02:24:48.472Z,8.03
2018-09-26T02:25:48.191Z,8.08
2018-09-26T02:26:48.443Z,8.08
2018-09-26T02:27:48.418Z,8.08
2018-09-26T02:28:47.873Z,8.04
2018-09-26T02:29:48.388Z,8.04
2018-09-26T02:30:48.373Z,8.03
2018-09-26T02:31:48.100Z,8.03
2018-09-26T02:32:48.359Z,8.03
2018-09-26T02:33:48.062Z,8.04
2018-09-26T02:34:48.306Z,8.02
2018-09-26T02:35:48.025Z,7.99
2018-09-26T02:36:47.735Z,8.03
2018-09-26T02:37:47.982Z,8
2018-09-26T02:38:47.696Z,7.97
2018-09-26T02:39:47.945Z,7.96
2018-09-26T02:40:48.188Z,8.02
2018-09-26T02:41:48.177Z,7.97
2018-09-26T02:42:48.171Z,7.94
2018-09-26T02:43:47.612Z,7.9
2018-09-26T02:44:48.128Z,7.84
2018-09-26T02:45:47.869Z,7.9
2018-09-26T02:46:47.556Z,7.82
2018-09-26T02:47:47.802Z,7.77
2018-09-26T02:48:47.785Z,7.78
2018-09-26T02:49:47.762Z,7.75
2018-09-26T02:50:47.745Z,7.71
2018-09-26T02:51:47.729Z,7.77
2018-09-26T02:52:47.720Z,7.75
2018-09-26T02:53:47.953Z,7.72
2018-09-26T02:54:47.690Z,7.75
2018-09-26T02:55:48.323Z,7.77
2018-09-26T02:56:47.637Z,7.72
2018-09-26T02:57:47.625Z,7.79
2018-09-26T02:58:47.613Z,7.67
2018-09-26T02:59:47.851Z,7.71
2018-09-26T03:00:47.571Z,7.6
2018-09-26T03:01:47.824Z,7.77
2018-09-26T03:02:47.535Z,7.74
2018-09-26T03:03:47.513Z,7.63
2018-09-26T03:04:47.768Z,7.74
2018-09-26T03:05:47.740Z,7.71
2018-09-26T03:06:47.718Z,7.72
2018-09-26T03:07:47.464Z,7.69
2018-09-26T03:08:47.690Z,7.6
2018-09-26T03:09:47.683Z,7.62
2018-09-26T03:10:47.496Z,7.62
2018-09-26T03:11:47.637Z,7.69
2018-09-26T03:12:47.614Z,7.63
2018-09-26T03:13:47.349Z,7.66
2018-09-26T03:14:47.314Z,7.74
2018-09-26T03:15:47.560Z,7.74
2018-09-26T03:16:47.289Z,7.6
2018-09-26T03:17:47.858Z,7.69
2018-09-26T03:18:47.517Z,7.74
2018-09-26T03:19:47.494Z,7.77
2018-09-26T03:20:47.201Z,7.82
2018-09-26T03:21:46.920Z,7.89
2018-09-26T03:22:46.902Z,7.87
2018-09-26T03:23:47.147Z,7.94
2018-09-26T03:24:47.135Z,7.99
2018-09-26T03:25:47.381Z,7.97
2018-09-26T03:26:47.097Z,8.03
2018-09-26T03:27:47.346Z,7.99
2018-09-26T03:28:46.800Z,7.96
2018-09-26T03:29:47.048Z,7.93
2018-09-26T03:30:47.295Z,8
2018-09-26T03:31:47.305Z,8.07
2018-09-26T03:32:46.996Z,8.02
2018-09-26T03:33:47.094Z,8
2018-09-26T03:34:46.957Z,7.97
2018-09-26T03:35:47.198Z,7.92
2018-09-26T03:36:46.647Z,7.94
2018-09-26T03:37:46.637Z,8.07
2018-09-26T03:38:47.145Z,8.02
2018-09-26T03:39:46.593Z,8
2018-09-26T03:40:46.849Z,8.02
2018-09-26T03:41:46.829Z,8.02
2018-09-26T03:42:47.074Z,8.03
2018-09-26T03:43:47.058Z,8.02
2018-09-26T03:44:47.038Z,8.02
2018-09-26T03:45:46.489Z,7.94
2018-09-26T03:46:46.748Z,8.02
2018-09-26T03:47:46.455Z,7.93
2018-09-26T03:48:46.696Z,7.93
2018-09-26T03:49:46.948Z,8.04
2018-09-26T03:50:46.669Z,7.97
2018-09-26T03:51:46.648Z,8.04
2018-09-26T03:52:46.634Z,8.02
2018-09-26T03:53:46.350Z,8.03
2018-09-26T03:54:46.591Z,8.04
2018-09-26T03:55:46.581Z,8.04
2018-09-26T03:56:46.293Z,8.03
2018-09-26T03:57:46.545Z,8.04
2018-09-26T03:59:46.503Z,8.02
2018-09-26T04:00:46.749Z,8.02
2018-09-26T04:01:46.462Z,8
2018-09-26T04:02:46.449Z,8.02
2018-09-26T04:03:46.430Z,8.04
2018-09-26T04:04:46.781Z,8
2018-09-26T04:05:46.661Z,7.97
2018-09-26T04:06:46.378Z,7.97
2018-09-26T04:07:46.096Z,7.97
2018-09-26T04:08:46.343Z,7.93
2018-09-26T04:09:46.589Z,7.92
2018-09-26T04:10:46.306Z,7.97
2018-09-26T04:11:46.290Z,7.92
2018-09-26T04:12:46.586Z,7.94
2018-09-26T04:13:45.988Z,7.9
2018-09-26T04:14:46.504Z,7.82
2018-09-26T04:15:46.025Z,7.9
2018-09-26T04:16:46.209Z,7.82
2018-09-26T04:17:46.444Z,7.79
2018-09-26T04:18:46.434Z,7.89
2018-09-26T04:19:46.147Z,7.85
2018-09-26T04:20:46.134Z,7.72
2018-09-26T04:21:46.110Z,7.78
2018-09-26T04:22:46.357Z,7.72
2018-09-26T04:23:46.076Z,7.74
2018-09-26T04:24:46.059Z,7.81
2018-09-26T04:25:46.035Z,7.81
2018-09-26T04:26:46.539Z,7.63
2018-09-26T04:27:46.279Z,7.67
2018-09-26T04:28:45.984Z,7.74
2018-09-26T04:29:46.246Z,7.71
2018-09-26T04:30:45.967Z,7.67
2018-09-26T04:31:45.931Z,7.66
2018-09-26T04:32:46.216Z,7.6
2018-09-26T04:33:46.272Z,7.53
2018-09-26T04:34:45.881Z,7.5
2018-09-26T04:35:45.856Z,7.5
2018-09-26T04:36:45.839Z,7.56
2018-09-26T04:37:46.083Z,7.58
2018-09-26T04:38:46.082Z,7.5
2018-09-26T04:39:45.785Z,7.49
2018-09-26T04:40:45.768Z,7.45
2018-09-26T04:41:45.489Z,7.38
2018-09-26T04:42:45.737Z,7.49
2018-09-26T04:43:45.712Z,7.38
2018-09-26T04:44:45.443Z,7.37
2018-09-26T04:45:45.420Z,7.35
2018-09-26T04:46:45.920Z,7.29
2018-09-26T04:47:45.643Z,7.34
2018-09-26T04:48:45.624Z,7.29
2018-09-26T04:49:45.875Z,7.23
2018-09-26T04:50:45.611Z,7.23
2018-09-26T04:51:45.572Z,7.22
2018-09-26T04:52:45.548Z,7.13
2018-09-26T04:53:45.808Z,7.17
2018-09-26T04:54:45.515Z,7.17
2018-09-26T04:55:45.909Z,7.19
2018-09-26T04:56:45.742Z,7.2
2018-09-26T04:57:45.568Z,7.17
2018-09-26T04:58:45.712Z,7.15
2018-09-26T04:59:45.164Z,7.16
2018-09-26T05:00:45.401Z,7.15
2018-09-26T05:01:45.399Z,7.15
2018-09-26T05:02:45.637Z,7.17
2018-09-26T05:03:45.610Z,7.15
2018-09-26T05:04:45.337Z,7.17
2018-09-26T05:05:45.319Z,7.13
2018-09-26T05:06:45.293Z,7.2
2018-09-26T05:07:45.277Z,7.09
2018-09-26T05:08:45.256Z,7.13
2018-09-26T05:09:45.518Z,7.13
2018-09-26T05:10:45.487Z,7.09
2018-09-26T05:11:45.210Z,7.09
2018-09-26T05:12:45.444Z,7.01
2018-09-26T05:13:45.164Z,7.02
2018-09-26T05:14:45.225Z,6.98
2018-09-26T05:15:45.127Z,7.04
2018-09-26T05:16:44.841Z,7.05
2018-09-26T05:17:45.361Z,7.04
2018-09-26T05:18:45.083Z,6.99
2018-09-26T05:19:45.054Z,6.97
2018-09-26T05:20:45.043Z,6.98
2018-09-26T05:21:45.028Z,7.01
2018-09-26T05:22:45.337Z,7.04
2018-09-26T05:23:44.984Z,6.97
2018-09-26T05:24:44.966Z,6.98
2018-09-26T05:25:44.942Z,7.01
2018-09-26T05:26:45.192Z,6.95
2018-09-26T05:27:44.911Z,6.98
2018-09-26T05:28:44.892Z,7.02
2018-09-26T05:29:44.870Z,6.91
2018-09-26T05:30:44.601Z,6.98
2018-09-26T05:31:45.104Z,6.99
2018-09-26T05:32:45.097Z,6.98
2018-09-26T05:33:44.542Z,6.97
2018-09-26T05:34:45.049Z,6.95
2018-09-26T05:35:44.775Z,6.97
2018-09-26T05:36:44.741Z,6.99
2018-09-26T05:37:44.989Z,7.07
2018-09-26T05:38:44.709Z,7.01
2018-09-26T05:39:44.700Z,6.99
2018-09-26T05:40:44.674Z,7.01
2018-09-26T05:41:44.754Z,7.02
2018-09-26T05:42:44.897Z,7.05
2018-09-26T05:43:44.354Z,7.07
2018-09-26T05:44:44.598Z,7.13
2018-09-26T05:45:44.574Z,7.08
2018-09-26T05:46:44.827Z,7.13
2018-09-26T05:47:44.807Z,7.16
2018-09-26T05:48:44.516Z,7.17
2018-09-26T05:49:44.235Z,7.16
2018-09-26T05:50:44.773Z,7.23
2018-09-26T05:51:44.469Z,7.23
2018-09-26T05:52:44.191Z,7.35
2018-09-26T05:53:44.697Z,7.29
2018-09-26T05:54:44.410Z,7.35
2018-09-26T05:55:44.396Z,7.44
2018-09-26T05:56:44.372Z,7.42
2018-09-26T05:57:44.096Z,7.5
2018-09-26T05:58:44.337Z,7.47
2018-09-26T05:59:44.504Z,7.58
2018-09-26T06:00:44.576Z,7.53
2018-09-26T06:01:44.022Z,7.58
2018-09-26T06:02:44.536Z,7.62
2018-09-26T06:03:44.247Z,7.63
2018-09-26T06:04:44.242Z,7.63
2018-09-26T06:05:43.959Z,7.75
2018-09-26T06:06:43.929Z,7.62
2018-09-26T06:07:44.180Z,7.77
2018-09-26T06:08:44.160Z,7.72
2018-09-26T06:09:44.143Z,7.77
2018-09-26T06:10:44.122Z,7.78
2018-09-26T06:11:44.122Z,7.77
2018-09-26T06:12:44.259Z,7.84
2018-09-26T06:13:44.335Z,7.89
2018-09-26T06:14:44.045Z,7.87
2018-09-26T06:15:44.296Z,7.9
2018-09-26T06:16:44.283Z,7.93
2018-09-26T06:17:43.995Z,7.96
2018-09-26T06:18:43.978Z,7.99
2018-09-26T06:19:43.966Z,8.02
2018-09-26T06:20:44.212Z,8.04
2018-09-26T06:21:43.933Z,8.11
2018-09-26T06:22:43.907Z,8.18
2018-09-26T06:23:43.885Z,8.12
2018-09-26T06:24:44.359Z,8.22
2018-09-26T06:25:44.119Z,8.22
2018-09-26T06:26:44.102Z,8.25
2018-09-26T06:27:43.813Z,8.26
2018-09-26T06:28:44.068Z,8.26
2018-09-26T06:29:43.780Z,8.26
2018-09-26T06:30:43.761Z,8.33
2018-09-26T06:31:43.481Z,8.4
2018-09-26T06:32:44.006Z,8.35
2018-09-26T06:33:43.973Z,8.36
2018-09-26T06:34:43.959Z,8.47
2018-09-26T06:35:43.672Z,8.42
2018-09-26T06:36:43.402Z,8.47
2018-09-26T06:37:43.689Z,8.51
2018-09-26T06:38:43.622Z,8.58
2018-09-26T06:39:43.870Z,8.58
2018-09-26T06:40:43.324Z,8.58
2018-09-26T06:41:43.838Z,8.66
2018-09-26T06:42:43.284Z,8.57
2018-09-26T06:43:43.535Z,8.73
2018-09-26T06:44:43.251Z,8.72
2018-09-26T06:45:43.496Z,8.81
2018-09-26T06:46:43.745Z,8.86
2018-09-26T06:47:43.640Z,8.81
2018-09-26T06:48:43.445Z,8.94
2018-09-26T06:49:43.697Z,8.97
2018-09-26T06:50:43.411Z,9.1
2018-09-26T06:51:43.402Z,9.09
2018-09-26T06:52:43.118Z,9.16
2018-09-26T06:53:43.359Z,9.16
2018-09-26T06:54:43.345Z,9.21
2018-09-26T06:55:43.995Z,9.38
2018-09-26T06:56:43.571Z,9.46
2018-09-26T06:57:43.296Z,9.52
2018-09-26T06:58:43.535Z,9.64
2018-09-26T06:59:43.519Z,9.66
2018-09-26T07:00:43.252Z,9.73
2018-09-26T07:01:42.967Z,9.82
2018-09-26T07:02:43.210Z,9.89
2018-09-26T07:03:43.187Z,9.96
2018-09-26T07:04:43.177Z,10.01
2018-09-26T07:05:43.158Z,10
2018-09-26T07:06:42.879Z,10.07
2018-09-26T07:07:43.125Z,10.18
2018-09-26T07:08:43.375Z,10.19
2018-09-26T07:09:43.347Z,10.26
2018-09-26T07:10:43.066Z,10.24
2018-09-26T07:11:43.062Z,10.3
2018-09-26T07:12:43.047Z,10.37
2018-09-26T07:13:43.018Z,10.4
2018-09-26T07:14:43.004Z,10.4
2018-09-26T07:15:42.719Z,10.53
2018-09-26T07:16:42.971Z,10.55
2018-09-26T07:17:42.948Z,10.52
2018-09-26T07:18:43.194Z,10.65
2018-09-26T07:19:42.655Z,10.7
2018-09-26T07:20:43.166Z,10.74
2018-09-26T07:21:42.624Z,10.7
2018-09-26T07:22:43.127Z,10.78
2018-09-26T07:23:42.850Z,10.78
2018-09-26T07:24:43.102Z,10.88
2018-09-26T07:25:43.089Z,10.88
2018-09-26T07:26:42.806Z,10.81
2018-09-26T07:27:42.791Z,10.92
2018-09-26T07:28:42.767Z,10.98
2018-09-26T07:29:42.754Z,10.99
2018-09-26T07:30:42.741Z,10.99
2018-09-26T07:31:43.064Z,11.06
2018-09-26T07:32:42.985Z,11.02
2018-09-26T07:33:42.692Z,11.1
2018-09-26T07:34:42.673Z,11.1
2018-09-26T07:35:42.916Z,11.1
2018-09-26T07:36:42.904Z,11.17
2018-09-26T07:37:42.890Z,11.25
2018-09-26T07:38:43.029Z,11.27
2018-09-26T07:39:42.329Z,11.25
2018-09-26T07:40:42.574Z,11.32
2018-09-26T07:41:42.566Z,11.35
2018-09-26T07:42:42.275Z,11.38
2018-09-26T07:43:42.267Z,11.31
2018-09-26T07:44:42.769Z,11.47
2018-09-26T07:45:42.543Z,11.44
2018-09-26T07:46:42.481Z,11.47
2018-09-26T07:47:42.458Z,11.54
2018-09-26T07:48:42.186Z,11.53
2018-09-26T07:49:42.428Z,11.56
2018-09-26T07:50:42.411Z,11.67
2018-09-26T07:51:42.132Z,11.67
2018-09-26T07:52:42.386Z,11.65
2018-09-26T07:53:42.368Z,11.67
2018-09-26T07:54:42.089Z,11.78
2018-09-26T07:55:42.600Z,11.78
2018-09-26T07:56:42.054Z,11.77
2018-09-26T07:57:42.301Z,11.75
2018-09-26T07:58:42.561Z,11.82
2018-09-26T07:59:42.538Z,11.94
2018-09-26T08:00:42.530Z,11.9
2018-09-26T08:01:42.513Z,11.97
2018-09-26T08:02:41.959Z,12.08
2018-09-26T08:03:42.208Z,12.09
2018-09-26T08:04:42.454Z,12.15
2018-09-26T08:05:42.175Z,12.15
2018-09-26T08:06:42.158Z,12.16
2018-09-26T08:07:41.880Z,12.21
2018-09-26T08:08:42.150Z,12.31
2018-09-26T08:09:42.111Z,12.38
2018-09-26T08:10:42.368Z,12.42
2018-09-26T08:11:42.160Z,12.49
2018-09-26T08:12:42.071Z,12.51
2018-09-26T08:13:42.049Z,12.52
2018-09-26T08:14:42.043Z,12.44
2018-09-26T08:15:41.755Z,12.46
2018-09-26T08:16:42.277Z,12.62
2018-09-26T08:17:42.252Z,12.51
2018-09-26T08:18:42.226Z,12.6
2018-09-26T08:19:41.695Z,12.6
2018-09-26T08:20:41.683Z,12.66
2018-09-26T08:21:41.933Z,12.62
2018-09-26T08:22:41.924Z,12.66
2018-09-26T08:23:41.697Z,12.66
2018-09-26T08:24:41.877Z,12.64
2018-09-26T08:25:41.605Z,12.78
2018-09-26T08:26:41.589Z,12.77
2018-09-26T08:27:41.572Z,12.79
2018-09-26T08:28:41.561Z,12.82
2018-09-26T08:29:41.561Z,12.88
2018-09-26T08:30:41.789Z,12.85
2018-09-26T08:31:41.776Z,12.93
2018-09-26T08:32:41.774Z,12.96
2018-09-26T08:33:41.749Z,12.97
2018-09-26T08:34:41.463Z,12.96
2018-09-26T08:35:41.713Z,12.95
2018-09-26T08:36:41.976Z,12.99
2018-09-26T08:37:41.704Z,13.14
2018-09-26T08:38:41.938Z,13.06
2018-09-26T08:39:41.660Z,13.11
2018-09-26T08:40:41.646Z,13.06
2018-09-26T08:41:41.894Z,13.12
2018-09-26T08:42:41.619Z,13.15
2018-09-26T08:43:41.654Z,13.17
2018-09-26T08:44:41.581Z,13.18
2018-09-26T08:45:41.304Z,13.2
2018-09-26T08:46:41.814Z,13.22
2018-09-26T08:47:41.276Z,13.25
2018-09-26T08:48:41.533Z,13.33
2018-09-26T08:49:41.513Z,13.4
2018-09-26T08:50:41.502Z,13.43
2018-09-26T08:51:41.480Z,13.4
2018-09-26T08:52:41.470Z,13.52
2018-09-26T08:53:41.900Z,13.54
2018-09-26T08:54:41.439Z,13.55
2018-09-26T08:55:41.698Z,13.52
2018-09-26T08:56:41.146Z,13.54
2018-09-26T08:57:41.656Z,13.62
2018-09-26T08:58:41.121Z,13.69
2018-09-26T08:59:41.186Z,13.76
2018-09-26T09:00:41.615Z,13.74
2018-09-26T09:01:41.074Z,13.67
2018-09-26T09:02:41.067Z,13.77
2018-09-26T09:03:41.579Z,13.71
2018-09-26T09:04:41.561Z,13.89
2018-09-26T09:05:41.552Z,13.79
2018-09-26T09:06:41.269Z,13.84
2018-09-26T09:07:41.528Z,13.77
2018-09-26T09:08:41.248Z,13.81
2018-09-26T09:09:41.230Z,13.79
2018-09-26T09:10:41.489Z,13.91
2018-09-26T09:11:41.354Z,13.92
2018-09-26T09:12:41.192Z,13.98
2018-09-26T09:13:41.444Z,13.94
2018-09-26T09:14:42.019Z,14.01
2018-09-26T09:15:40.884Z,14.02
2018-09-26T09:16:41.392Z,13.98
2018-09-26T09:17:41.497Z,14.02
2018-09-26T09:18:41.376Z,14.06
2018-09-26T09:19:41.095Z,14.17
2018-09-26T09:20:41.082Z,14.17
2018-09-26T09:21:40.796Z,14.12
2018-09-26T09:22:41.050Z,14.25
2018-09-26T09:23:41.295Z,14.35
2018-09-26T09:24:40.760Z,14.34
2018-09-26T09:25:41.272Z,14.39
2018-09-26T09:26:41.262Z,14.46
2018-09-26T09:27:41.553Z,14.47
2018-09-26T09:28:40.977Z,14.5
2018-09-26T09:29:41.214Z,14.52
2018-09-26T09:30:41.201Z,14.49
2018-09-26T09:31:41.193Z,14.54
2018-09-26T09:32:40.653Z,14.62
2018-09-26T09:33:40.901Z,14.67
2018-09-26T09:34:40.889Z,14.8
2018-09-26T09:35:40.609Z,14.86
2018-09-26T09:36:41.378Z,14.87
2018-09-26T09:37:40.847Z,14.93
2018-09-26T09:38:40.575Z,14.99
2018-09-26T09:39:41.090Z,14.98
2018-09-26T09:40:40.810Z,15.06
2018-09-26T09:41:41.074Z,15.17
2018-09-26T09:42:40.786Z,15.19
2018-09-26T09:43:40.771Z,15.27
2018-09-26T09:44:40.762Z,15.28
2018-09-26T09:45:40.747Z,15.24
2018-09-26T09:46:41.010Z,15.27
2018-09-26T09:47:40.993Z,15.3
2018-09-26T09:48:40.448Z,15.31
2018-09-26T09:49:40.699Z,15.35
2018-09-26T09:50:40.419Z,15.31
2018-09-26T09:51:41.069Z,15.3
2018-09-26T09:52:40.651Z,15.38
2018-09-26T09:53:40.906Z,15.31
2018-09-26T09:54:40.637Z,15.31
2018-09-26T09:55:40.353Z,15.45
2018-09-26T09:56:40.610Z,15.49
2018-09-26T09:57:40.590Z,15.49
2018-09-26T09:58:40.324Z,15.43
2018-09-26T09:59:40.833Z,15.52
2018-09-26T10:00:40.554Z,15.49
2018-09-26T10:01:40.810Z,15.49
2018-09-26T10:02:41.036Z,15.52
2018-09-26T10:03:40.524Z,15.52
2018-09-26T10:04:40.503Z,15.59
2018-09-26T10:05:40.755Z,15.6
2018-09-26T10:06:40.736Z,15.61
2018-09-26T10:07:40.467Z,15.43
2018-09-26T10:08:40.523Z,15.52
2018-09-26T10:09:40.448Z,15.63
2018-09-26T10:10:40.430Z,15.56
2018-09-26T10:11:40.417Z,15.56
2018-09-26T10:12:40.663Z,15.52
2018-09-26T10:13:40.394Z,15.6
2018-09-26T10:14:40.385Z,15.54
2018-09-26T10:15:40.369Z,15.59
2018-09-26T10:16:40.093Z,15.64
2018-09-26T10:17:40.771Z,15.67
2018-09-26T10:18:40.592Z,15.75
2018-09-26T10:19:40.580Z,15.74
2018-09-26T10:20:40.582Z,15.74
2018-09-26T10:21:40.299Z,15.7
2018-09-26T10:22:40.280Z,15.81
2018-09-26T10:23:40.530Z,15.75
2018-09-26T10:24:39.991Z,15.7
2018-09-26T10:25:40.507Z,15.86
2018-09-26T10:26:40.233Z,15.79
2018-09-26T10:27:40.221Z,15.85
2018-09-26T10:28:40.486Z,15.86
2018-09-26T10:29:40.458Z,15.89
2018-09-26T10:30:40.448Z,15.88
2018-09-26T10:31:40.483Z,15.96
2018-09-26T10:32:40.158Z,15.88
2018-09-26T10:33:40.148Z,15.85
2018-09-26T10:34:40.407Z,15.96
2018-09-26T10:35:40.130Z,16.01
2018-09-26T10:36:40.116Z,16.09
2018-09-26T10:37:40.367Z,16.07
2018-09-26T10:38:40.094Z,16.25
2018-09-26T10:39:39.811Z,16.23
2018-09-26T10:40:40.356Z,16.3
2018-09-26T10:41:39.792Z,16.27
2018-09-26T10:42:40.306Z,16.34
2018-09-26T10:43:40.028Z,16.34
2018-09-26T10:44:39.756Z,16.3
2018-09-26T10:45:40.014Z,16.27
2018-09-26T10:46:40.372Z,16.25
2018-09-26T10:47:39.986Z,16.26
2018-09-26T10:48:39.971Z,16.25
2018-09-26T10:49:39.693Z,16.22
2018-09-26T10:50:40.217Z,16.15
2018-09-26T10:51:39.935Z,16.18
2018-09-26T10:52:40.200Z,16.16
2018-09-26T10:53:40.180Z,16.27
2018-09-26T10:54:40.169Z,16.3
2018-09-26T10:55:39.633Z,16.3
2018-09-26T10:56:40.432Z,16.42
2018-09-26T10:57:39.865Z,16.49
2018-09-26T10:58:39.854Z,16.56
2018-09-26T10:59:40.106Z,16.59
2018-09-26T11:00:40.094Z,16.59
2018-09-26T11:01:40.081Z,16.74
2018-09-26T11:02:40.053Z,16.88
2018-09-26T11:03:39.806Z,16.71
2018-09-26T11:04:39.787Z,16.74
2018-09-26T11:05:40.059Z,16.73
2018-09-26T11:06:40.025Z,16.7
2018-09-26T11:07:40.018Z,16.73
2018-09-26T11:08:39.471Z,16.73
2018-09-26T11:09:39.730Z,16.58
2018-09-26T11:10:39.982Z,16.59
2018-09-26T11:11:39.713Z,16.67
2018-09-26T11:12:39.838Z,16.73
2018-09-26T11:13:39.944Z,16.71
2018-09-26T11:14:39.671Z,16.8
2018-09-26T11:15:39.662Z,16.74
2018-09-26T11:16:39.917Z,16.65
2018-09-26T11:17:39.377Z,16.75
2018-09-26T11:18:39.892Z,16.78
2018-09-26T11:19:39.877Z,16.81
2018-09-26T11:20:39.943Z,16.96
2018-09-26T11:21:39.595Z,17
2018-09-26T11:22:39.322Z,16.9
2018-09-26T11:23:39.574Z,16.98
2018-09-26T11:24:39.825Z,17.07
2018-09-26T11:25:39.288Z,17.11
2018-09-26T11:26:39.652Z,17.11
2018-09-26T11:27:39.527Z,17.22
2018-09-26T11:28:39.781Z,17.36
2018-09-26T11:29:39.774Z,17.44
2018-09-26T11:30:39.757Z,17.4
2018-09-26T11:31:39.496Z,17.51
2018-09-26T11:32:39.741Z,17.55
2018-09-26T11:33:39.609Z,17.67
2018-09-26T11:34:39.459Z,17.64
2018-09-26T11:35:39.720Z,17.69
2018-09-26T11:36:39.438Z,17.57
2018-09-26T11:37:39.694Z,17.55
2018-09-26T11:38:39.416Z,17.59
2018-09-26T11:39:39.672Z,17.76
2018-09-26T11:40:39.677Z,17.74
2018-09-26T11:41:39.383Z,17.85
2018-09-26T11:42:39.636Z,17.91
2018-09-26T11:43:39.371Z,17.97
2018-09-26T11:44:39.754Z,18.17
2018-09-26T11:45:39.616Z,18.28
2018-09-26T11:46:39.339Z,18.28
2018-09-26T11:47:39.599Z,18.5
2018-09-26T11:48:39.070Z,18.68
2018-09-26T11:49:39.582Z,18.91
2018-09-26T11:50:39.046Z,18.98
2018-09-26T11:51:39.303Z,19.32
2018-09-26T11:52:39.296Z,19.4
2018-09-26T11:53:39.294Z,19.54
2018-09-26T11:54:39.290Z,19.75
2018-09-26T11:55:39.282Z,19.87
2018-09-26T11:56:39.285Z,20.27
2018-09-26T11:57:39.278Z,20.46
2018-09-26T11:58:39.272Z,20.54
2018-09-26T11:59:39.271Z,20.64
2018-09-26T12:00:39.255Z,20.68
2018-09-26T12:01:39.265Z,20.93
2018-09-26T12:02:39.018Z,20.98
2018-09-26T12:03:39.244Z,21.21
2018-09-26T12:04:39.239Z,21.38
2018-09-26T12:05:39.499Z,21.57
2018-09-26T12:06:39.504Z,21.61
2018-09-26T12:07:39.515Z,21.72
2018-09-26T12:08:39.223Z,21.92
2018-09-26T12:09:39.227Z,22.27
2018-09-26T12:10:38.955Z,22.22
2018-09-26T12:11:39.488Z,22.68
2018-09-26T12:12:39.479Z,22.86
2018-09-26T12:13:39.006Z,23.08
2018-09-26T12:14:39.468Z,23.04
2018-09-26T12:15:39.204Z,23.24
2018-09-26T12:16:39.520Z,23.61
2018-09-26T12:17:39.208Z,23.71
2018-09-26T12:18:39.458Z,23.64
2018-09-26T12:19:39.209Z,23.75
2018-09-26T12:20:39.459Z,23.95
2018-09-26T12:21:38.964Z,24.05
2018-09-26T12:22:39.410Z,24.17
2018-09-26T12:23:39.462Z,24.32
2018-09-26T12:24:39.470Z,24.39
2018-09-26T12:25:38.936Z,24.54
2018-09-26T12:26:39.187Z,24.63
2018-09-26T12:27:39.218Z,24.82
2018-09-26T12:28:39.455Z,24.69
2018-09-26T12:29:39.198Z,24.53
2018-09-26T12:30:38.918Z,24.54
2018-09-26T12:31:39.199Z,24.56
2018-09-26T12:32:39.186Z,24.79
2018-09-26T12:33:39.450Z,25.01
2018-09-26T12:34:39.492Z,25.02
2018-09-26T12:35:39.461Z,24.64
2018-09-26T12:36:38.927Z,24.73
2018-09-26T12:37:39.449Z,24.47
2018-09-26T12:38:39.244Z,24.37
2018-09-26T12:39:39.450Z,24.34
2018-09-26T12:40:39.189Z,24.53
2018-09-26T12:41:39.193Z,24.61
2018-09-26T12:42:39.608Z,25.06
2018-09-26T12:43:39.461Z,25
2018-09-26T12:44:39.461Z,25.42
2018-09-26T12:45:39.197Z,25.82
2018-09-26T12:46:39.207Z,25.79
2018-09-26T12:47:39.194Z,25.64
2018-09-26T12:48:39.485Z,25.61
2018-09-26T12:49:39.205Z,25.74
2018-09-26T12:50:39.196Z,25.9
2018-09-26T12:51:39.200Z,25.83
2018-09-26T12:52:39.210Z,25.52
2018-09-26T12:53:39.440Z,25.49
2018-09-26T12:54:39.207Z,25.5
2018-09-26T12:55:39.211Z,25.53
2018-09-26T12:56:39.147Z,25.34
2018-09-26T12:57:38.956Z,25.37
2018-09-26T12:58:39.525Z,25.56
2018-09-26T12:59:39.478Z,25.35
2018-09-26T13:00:39.631Z,25.16
2018-09-26T13:01:39.217Z,25.31
2018-09-26T13:02:39.599Z,25.38
2018-09-26T13:03:39.507Z,25.44
2018-09-26T13:04:39.221Z,25.56
2018-09-26T13:05:39.225Z,25.5
2018-09-26T13:06:38.959Z,25.71
2018-09-26T13:07:38.955Z,26.06
2018-09-26T13:08:39.502Z,25.84
2018-09-26T13:09:39.238Z,25.97
2018-09-26T13:10:39.226Z,26.08
2018-09-26T13:11:39.227Z,26.18